Time;durP1;ratioP1;P1;durP2;ratioP2;P2;SDS_P1;SDS_P2;PMS_P1;PMS_P2;Temp;Humidity;BMP_temperature;BMP_pressure;BME280_temperature;BME280_humidity;BME280_pressure;Samples;Min_cycle;Max_cycle;Signal;HPM_P1;HPM_P2
2022/11/16 00:00:29;;;;;;;0.30;0.30;;;;;;;18.54;44.82;101119.38;4813864;29;20039;-93
2022/11/16 00:02:54;;;;;;;0.30;0.30;;;;;;;18.54;44.63;101116.66;4812830;29;20069;-92
2022/11/16 00:05:20;;;;;;;0.20;0.20;;;;;;;18.55;44.67;101115.59;4794973;29;20516;-93
2022/11/16 00:07:45;;;;;;;0.20;0.20;;;;;;;18.55;44.97;101120.19;4812854;29;20065;-92
2022/11/16 00:10:11;;;;;;;0.25;0.25;;;;;;;18.54;44.62;101116.66;4808397;29;20121;-92
2022/11/16 00:12:37;;;;;;;0.30;0.30;;;;;;;18.53;44.73;101119.59;4793134;29;20482;-93
2022/11/16 00:15:04;;;;;;;0.30;0.30;;;;;;;18.55;44.59;101125.59;4809697;29;20026;-93
2022/11/16 00:17:29;;;;;;;0.30;0.30;;;;;;;18.53;44.84;101123.13;4809255;29;20039;-92
2022/11/16 00:19:55;;;;;;;0.30;0.30;;;;;;;18.55;44.75;101126.44;4796799;29;20083;-93
2022/11/16 00:22:21;;;;;;;0.30;0.30;;;;;;;18.53;44.91;101117.72;4805251;29;20039;-93
2022/11/16 00:24:46;;;;;;;0.30;0.22;;;;;;;18.55;44.82;101131.03;4791002;29;20066;-93
2022/11/16 00:27:12;;;;;;;0.20;0.20;;;;;;;18.55;44.73;101121.00;4805516;29;20206;-93
2022/11/16 00:29:37;;;;;;;0.20;0.20;;;;;;;18.56;44.80;101124.56;4801607;29;20118;-95
2022/11/16 00:32:03;;;;;;;0.20;0.20;;;;;;;18.55;44.67;101126.44;4812989;29;21032;-94
2022/11/16 00:34:28;;;;;;;0.35;0.30;;;;;;;18.56;44.88;101132.69;4809184;29;20489;-93
2022/11/16 00:36:54;;;;;;;0.30;0.30;;;;;;;18.54;44.80;101127.50;4795950;29;20037;-93
2022/11/16 00:39:20;;;;;;;0.25;0.25;;;;;;;18.55;44.88;101131.84;4805319;29;20122;-93
2022/11/16 00:41:48;;;;;;;0.28;0.28;;;;;;;18.54;44.79;101132.91;4792194;29;20365;-93
2022/11/16 00:44:14;;;;;;;0.20;0.20;;;;;;;18.53;44.97;101122.31;4777966;29;20038;-92
2022/11/16 00:46:40;;;;;;;0.30;0.30;;;;;;;18.54;44.83;101132.91;4810780;29;20037;-93
2022/11/16 00:49:05;;;;;;;0.22;0.22;;;;;;;18.53;44.66;101125.81;4807646;29;20154;-93
2022/11/16 00:51:32;;;;;;;0.20;0.20;;;;;;;18.55;44.68;101122.91;4809317;29;20117;-93
2022/11/16 00:53:57;;;;;;;0.20;0.20;;;;;;;18.55;44.89;101126.44;4810418;29;20243;-93
2022/11/16 00:56:23;;;;;;;0.20;0.20;;;;;;;18.55;44.72;101126.44;4810490;29;20038;-92
2022/11/16 00:58:49;;;;;;;0.20;0.20;;;;;;;18.54;44.94;101127.50;4792729;29;20561;-93
2022/11/16 01:01:14;;;;;;;0.20;0.20;;;;;;;18.56;44.66;101128.09;4789617;29;20109;-94
2022/11/16 01:03:40;;;;;;;0.20;0.20;;;;;;;18.54;44.82;101130.19;4806107;29;20126;-94
2022/11/16 01:06:08;;;;;;;0.20;0.20;;;;;;;18.52;44.84;101123.34;4805336;29;20042;-93
2022/11/16 01:08:34;;;;;;;0.20;0.20;;;;;;;18.53;44.98;101128.53;4787245;29;20873;-94
2022/11/16 01:12:07;;;;;;;0.30;0.20;;;;;;;18.53;44.63;101123.13;4777479;29;20604;-92
2022/11/16 01:13:47;;;;;;;0.22;0.22;;;;;;;18.56;44.93;101114.56;4811730;29;20392;-94
2022/11/16 01:16:16;;;;;;;0.20;0.20;;;;;;;18.54;44.67;101111.25;4794053;29;20058;-93
2022/11/16 01:18:43;;;;;;;0.20;0.20;;;;;;;18.54;44.82;101105.84;4802130;29;20046;-92
2022/11/16 01:21:08;;;;;;;0.20;0.20;;;;;;;18.56;44.91;101117.25;4788149;29;20519;-93
2022/11/16 01:23:34;;;;;;;0.20;0.20;;;;;;;18.56;44.88;101111.03;4810664;29;20085;-92
2022/11/16 01:26:02;;;;;;;0.20;0.20;;;;;;;18.56;44.71;101116.44;4791999;29;20056;-93
2022/11/16 01:28:28;;;;;;;0.30;0.30;;;;;;;18.55;44.78;101115.59;4771013;29;20039;-93
2022/11/16 01:30:56;;;;;;;0.10;0.10;;;;;;;18.56;44.80;101111.84;4792257;29;20506;-94
2022/11/16 01:33:22;;;;;;;0.20;0.20;;;;;;;18.55;44.89;101110.19;4816020;29;20436;-93
2022/11/16 01:35:48;;;;;;;0.20;0.20;;;;;;;18.56;44.84;101111.03;4820897;29;20472;-93
2022/11/16 01:38:13;;;;;;;0.20;0.20;;;;;;;18.56;44.89;101106.44;4814014;29;20540;-93
2022/11/16 01:40:39;;;;;;;0.20;0.20;;;;;;;18.56;44.82;101122.69;4811011;29;20026;-94
2022/11/16 01:43:23;;;;;;;0.80;0.28;;;;;;;18.55;44.72;101129.13;4793078;29;20033;-92
2022/11/16 01:45:48;;;;;;;0.25;0.25;;;;;;;18.56;44.81;101127.28;4788599;29;20035;-94
2022/11/16 01:48:19;;;;;;;0.20;0.20;;;;;;;18.55;44.72;101133.72;4820766;29;20066;-93
2022/11/16 01:50:45;;;;;;;0.20;0.20;;;;;;;18.53;45.00;101133.94;4816157;29;20031;-93
2022/11/16 01:53:10;;;;;;;0.20;0.20;;;;;;;18.56;44.77;101138.94;4804528;29;20087;-94
2022/11/16 01:55:36;;;;;;;0.20;0.20;;;;;;;18.55;44.79;101134.53;4802934;29;20067;-92
2022/11/16 01:58:02;;;;;;;0.20;0.20;;;;;;;18.53;44.78;101133.94;4812159;29;20128;-94
2022/11/16 02:00:27;;;;;;;0.20;0.20;;;;;;;18.55;44.73;101139.97;4803993;29;20037;-93
2022/11/16 02:02:53;;;;;;;0.20;0.20;;;;;;;18.56;44.61;101141.63;4798317;29;20058;-93
2022/11/16 02:05:21;;;;;;;0.20;0.20;;;;;;;18.57;44.50;101143.28;4815581;29;20027;-92
2022/11/16 02:11:24;;;;;;;0.20;0.20;;;;;;;18.55;44.74;101139.97;4769946;29;20042;-93
2022/11/16 02:14:09;;;;;;;0.20;0.20;;;;;;;18.56;44.57;101136.22;4794607;29;20033;-93
2022/11/16 02:17:13;;;;;;;0.20;0.20;;;;;;;18.56;44.48;101132.69;4761666;29;20133;-94
2022/11/16 02:19:51;;;;;;;0.20;0.20;;;;;;;18.56;44.65;101133.50;4771687;29;20051;-94
2022/11/16 02:22:39;;;;;;;0.20;0.20;;;;;;;18.55;44.50;101131.84;4814472;29;20357;-92
2022/11/16 02:25:33;;;;;;;0.20;0.20;;;;;;;18.54;44.57;101122.09;4785268;29;20058;-93
2022/11/16 02:28:27;;;;;;;0.10;0.10;;;;;;;18.56;44.77;101128.09;4808295;29;20569;-93
2022/11/16 02:30:53;;;;;;;0.20;0.20;;;;;;;18.55;44.81;101123.72;4797689;29;20030;-92
2022/11/16 02:33:21;;;;;;;0.20;0.20;;;;;;;18.56;44.50;101122.69;4812976;29;20523;-93
2022/11/16 02:35:49;;;;;;;0.20;0.20;;;;;;;18.56;44.61;101119.97;4783188;29;20498;-93
2022/11/16 02:38:28;;;;;;;0.20;0.20;;;;;;;18.55;44.69;101115.59;4787213;29;20038;-92
2022/11/16 02:40:57;;;;;;;0.20;0.20;;;;;;;18.56;44.73;101119.16;4775696;29;20442;-93
2022/11/16 02:43:30;;;;;;;0.20;0.20;;;;;;;18.58;44.62;101117.88;4791388;29;20496;-93
2022/11/16 02:45:57;;;;;;;0.20;0.20;;;;;;;18.55;44.34;101120.19;4789103;29;20062;-94
2022/11/16 02:48:25;;;;;;;0.30;0.20;;;;;;;18.56;44.52;101121.88;4774203;29;20102;-93
2022/11/16 02:50:51;;;;;;;0.20;0.20;;;;;;;18.56;44.46;101117.25;4786878;29;20053;-92
2022/11/16 02:53:17;;;;;;;0.20;0.20;;;;;;;18.56;44.49;101111.84;4807426;29;20038;-93
2022/11/16 02:55:43;;;;;;;0.10;0.10;;;;;;;18.56;44.48;101106.44;4809665;29;20610;-94
2022/11/16 02:58:09;;;;;;;0.20;0.20;;;;;;;18.53;44.43;101106.88;4809121;29;20038;-93
2022/11/16 03:00:42;;;;;;;0.20;0.20;;;;;;;18.57;44.53;101101.84;4805766;29;20396;-93
2022/11/16 03:03:15;;;;;;;0.20;0.20;;;;;;;18.52;44.50;101089.00;4804420;29;20441;-93
2022/11/16 03:05:43;;;;;;;0.20;0.20;;;;;;;18.55;44.74;101093.94;4791618;29;20424;-93
2022/11/16 03:08:24;;;;;;;0.40;0.20;;;;;;;18.58;44.52;101104.34;4789995;29;20105;-92
2022/11/16 03:13:42;;;;;;;0.20;0.20;;;;;;;18.55;44.48;101098.53;4788703;29;20200;-94
2022/11/16 03:16:19;;;;;;;0.20;0.20;;;;;;;18.53;44.54;101096.06;4791827;29;20173;-92
2022/11/16 03:18:45;;;;;;;0.20;0.20;;;;;;;18.55;44.57;101099.34;4790935;29;20130;-93
2022/11/16 03:21:21;;;;;;;0.20;0.20;;;;;;;18.56;44.49;101102.91;4808760;29;20143;-93
2022/11/16 03:23:47;;;;;;;0.30;0.30;;;;;;;18.56;44.40;101105.63;4809080;29;20030;-92
2022/11/16 03:26:14;;;;;;;0.28;0.28;;;;;;;18.58;44.49;101109.75;4793041;29;20046;-94
2022/11/16 03:28:49;;;;;;;0.30;0.30;;;;;;;18.56;44.64;101105.63;4790661;29;20449;-92
2022/11/16 03:31:24;;;;;;;0.20;0.20;;;;;;;18.55;44.48;101115.59;4786915;29;20480;-93
2022/11/16 03:33:52;;;;;;;0.10;0.10;;;;;;;18.55;44.73;101110.19;4785125;29;20026;-94
2022/11/16 03:36:21;;;;;;;0.20;0.20;;;;;;;18.55;44.55;101099.34;4794890;29;20038;-93
2022/11/16 03:38:46;;;;;;;0.20;0.20;;;;;;;18.56;44.27;101106.44;4804008;29;20300;-94
2022/11/16 03:41:12;;;;;;;0.20;0.20;;;;;;;18.59;44.43;101107.84;4778186;29;20033;-93
2022/11/16 03:43:38;;;;;;;0.10;0.10;;;;;;;18.56;44.50;101117.25;4787402;29;20132;-93
2022/11/16 03:46:04;;;;;;;0.10;0.10;;;;;;;18.57;44.35;101110.81;4812401;29;20112;-93
2022/11/16 03:48:34;;;;;;;0.20;0.20;;;;;;;18.58;44.54;101111.63;4791353;29;20303;-93
2022/11/16 03:51:02;;;;;;;0.20;0.20;;;;;;;18.57;44.49;101118.94;4791467;29;20179;-94
2022/11/16 03:53:28;;;;;;;0.10;0.10;;;;;;;18.57;44.41;101124.34;4792023;29;20030;-94
2022/11/16 03:55:53;;;;;;;0.20;0.20;;;;;;;18.58;44.46;101117.88;4805737;29;20400;-94
2022/11/16 03:58:19;;;;;;;0.20;0.20;;;;;;;18.57;44.35;101107.25;4808547;29;20030;-93
2022/11/16 04:00:45;;;;;;;0.20;0.20;;;;;;;18.57;44.36;101096.44;4810677;29;20035;-93
2022/11/16 04:03:10;;;;;;;0.10;0.10;;;;;;;18.57;44.45;101108.09;4790110;29;20564;-93
2022/11/16 04:25:24;;;;;;;0.10;0.10;;;;;;;18.57;44.47;101048.56;4810281;29;20062;-94
2022/11/16 04:38:45;;;;;;;0.20;0.20;;;;;;;18.55;44.42;101072.28;4808853;29;20102;-93
2022/11/16 04:42:13;;;;;;;0.13;0.13;;;;;;;18.56;44.30;101078.56;4793737;29;20117;-92
2022/11/16 04:43:56;;;;;;;0.13;0.13;;;;;;;18.57;44.34;101080.19;4811282;29;20094;-93
2022/11/16 04:49:06;;;;;;;0.10;0.10;;;;;;;18.55;44.50;101083.13;4809155;29;20041;-93
2022/11/16 04:51:32;;;;;;;0.10;0.10;;;;;;;18.54;44.44;101081.47;4806476;29;20047;-93
2022/11/16 04:53:57;;;;;;;0.10;0.10;;;;;;;18.58;44.42;101085.38;4791545;29;20030;-94
2022/11/16 04:56:23;;;;;;;0.20;0.20;;;;;;;18.56;44.25;101078.56;4798662;29;20079;-93
2022/11/16 04:58:49;;;;;;;0.43;0.20;;;;;;;18.57;44.46;101081.03;4784733;29;20077;-93
2022/11/16 05:01:14;;;;;;;0.20;0.20;;;;;;;18.57;44.39;101075.63;4807229;29;20038;-93
2022/11/16 05:03:40;;;;;;;0.20;0.20;;;;;;;18.55;44.41;101072.28;4808201;29;20079;-93
2022/11/16 05:06:06;;;;;;;0.10;0.10;;;;;;;18.54;44.59;101053.56;4811880;29;20387;-93
2022/11/16 05:08:31;;;;;;;0.20;0.20;;;;;;;18.57;44.44;101063.94;4789033;29;20027;-93
2022/11/16 05:10:57;;;;;;;0.10;0.10;;;;;;;18.55;44.44;101072.28;4813699;29;20030;-93
2022/11/16 05:13:22;;;;;;;0.15;0.15;;;;;;;18.57;44.26;101070.22;4795726;29;20035;-93
2022/11/16 05:15:48;;;;;;;0.30;0.30;;;;;;;18.57;44.53;101072.91;4815526;29;20125;-93
2022/11/16 05:18:14;;;;;;;0.20;0.20;;;;;;;18.57;44.40;101075.63;4813920;29;20045;-93
2022/11/16 05:21:00;;;;;;;0.13;0.13;;;;;;;18.56;44.36;101078.56;4811750;29;20121;-93
2022/11/16 05:26:10;;;;;;;0.10;0.10;;;;;;;18.55;44.33;101088.53;4814940;29;20045;-93
2022/11/16 05:28:35;;;;;;;0.10;0.10;;;;;;;18.57;44.28;101094.56;4814769;29;20058;-93
2022/11/16 05:31:01;;;;;;;0.20;0.20;;;;;;;18.55;44.27;101088.53;4813203;29;20041;-93
2022/11/16 05:33:27;;;;;;;0.20;0.20;;;;;;;18.60;44.29;101089.75;4815274;29;20070;-93
2022/11/16 05:35:52;;;;;;;0.38;0.30;;;;;;;18.57;44.42;101081.03;4796612;29;20078;-93
2022/11/16 05:38:18;;;;;;;0.20;0.20;;;;;;;18.53;44.26;101071.69;4814710;29;20073;-93
2022/11/16 05:40:44;;;;;;;0.20;0.20;;;;;;;18.57;44.39;101089.16;4797163;29;20399;-93
2022/11/16 05:43:12;;;;;;;0.20;0.20;;;;;;;18.58;44.27;101081.84;4800430;29;20085;-93
2022/11/16 05:45:38;;;;;;;0.15;0.15;;;;;;;18.57;44.31;101086.44;4812376;29;20583;-94
2022/11/16 05:48:03;;;;;;;0.30;0.30;;;;;;;18.57;44.36;101085.59;4811490;29;20041;-94
2022/11/16 05:50:29;;;;;;;0.20;0.20;;;;;;;18.57;44.50;101091.03;4811559;29;20481;-93
2022/11/16 05:52:54;;;;;;;0.20;0.20;;;;;;;18.56;44.47;101095.63;4795773;29;20118;-93
2022/11/16 05:55:20;;;;;;;0.10;0.10;;;;;;;18.56;44.30;101092.91;4810929;29;20045;-93
2022/11/16 05:57:46;;;;;;;0.20;0.20;;;;;;;18.57;44.48;101097.28;4808985;29;20035;-93
2022/11/16 06:00:12;;;;;;;0.20;0.20;;;;;;;18.57;44.35;101097.28;4814015;29;20114;-93
2022/11/16 06:02:37;;;;;;;0.15;0.15;;;;;;;18.58;44.35;101100.81;4814439;29;20049;-94
2022/11/16 06:05:03;;;;;;;0.20;0.20;;;;;;;18.58;44.19;101098.91;4812992;29;20113;-93
2022/11/16 06:07:29;;;;;;;0.10;0.10;;;;;;;18.57;44.41;101102.69;4812729;29;20038;-93
2022/11/16 06:09:54;;;;;;;0.10;0.10;;;;;;;18.58;44.43;101103.50;4794433;29;20568;-93
2022/11/16 06:12:20;;;;;;;0.80;0.20;;;;;;;18.57;44.31;101102.69;4808041;29;20114;-94
2022/11/16 06:14:45;;;;;;;0.17;0.17;;;;;;;18.58;44.24;101098.91;4810506;29;20133;-94
2022/11/16 06:17:14;;;;;;;0.20;0.20;;;;;;;18.57;44.18;101100.00;4807269;29;20396;-93
2022/11/16 06:19:40;;;;;;;0.10;0.10;;;;;;;18.56;44.16;101106.44;4789427;29;20352;-94
2022/11/16 06:22:06;;;;;;;0.20;0.20;;;;;;;18.57;44.16;101101.84;4814144;29;20039;-95
2022/11/16 06:24:31;;;;;;;0.65;0.20;;;;;;;18.56;44.14;101101.03;4809950;29;20041;-93
2022/11/16 06:26:57;;;;;;;0.17;0.17;;;;;;;18.58;44.20;101103.50;4810421;29;20068;-94
2022/11/16 06:29:23;;;;;;;0.10;0.10;;;;;;;18.57;44.24;101109.97;4790326;29;20042;-94
2022/11/16 06:31:48;;;;;;;0.10;0.10;;;;;;;18.57;44.16;101102.69;4809638;29;20460;-95
2022/11/16 06:34:14;;;;;;;0.10;0.10;;;;;;;18.55;44.07;101110.19;4806876;29;20026;-94
2022/11/16 06:36:40;;;;;;;0.20;0.20;;;;;;;18.57;44.11;101112.69;4807480;29;20121;-94
2022/11/16 06:39:05;;;;;;;0.30;0.13;;;;;;;18.56;44.22;101109.16;4809440;29;20117;-94
2022/11/16 06:41:31;;;;;;;0.20;0.20;;;;;;;18.56;44.04;101111.84;4803050;29;20062;-94
2022/11/16 06:43:57;;;;;;;0.20;0.20;;;;;;;18.57;44.11;101108.09;4809122;29;20039;-94
2022/11/16 06:46:23;;;;;;;0.20;0.20;;;;;;;18.55;44.11;101110.19;4789137;29;20031;-94
2022/11/16 06:48:49;;;;;;;0.22;0.20;;;;;;;18.57;44.17;101109.97;4809715;29;20023;-94
2022/11/16 06:51:15;;;;;;;0.20;0.20;;;;;;;18.58;44.25;101123.28;4788364;29;20058;-94
2022/11/16 06:53:40;;;;;;;0.20;0.20;;;;;;;18.58;44.03;101125.16;4791758;29;20031;-94
2022/11/16 06:56:06;;;;;;;0.10;0.10;;;;;;;18.56;44.00;101125.38;4801603;29;20057;-94
2022/11/16 06:58:32;;;;;;;0.20;0.20;;;;;;;18.57;44.23;101121.66;4808069;29;20043;-94
2022/11/16 07:01:04;;;;;;;0.20;0.20;;;;;;;18.57;44.10;101118.09;4811443;29;20035;-95
2022/11/16 07:03:30;;;;;;;0.17;0.17;;;;;;;18.58;44.18;101117.88;4780349;29;20609;-95
2022/11/16 07:05:56;;;;;;;0.20;0.20;;;;;;;18.57;43.97;101121.66;4795134;29;20038;-94
2022/11/16 07:08:21;;;;;;;0.20;0.20;;;;;;;18.58;44.10;101123.28;4809608;29;20062;-95
2022/11/16 07:10:47;;;;;;;0.20;0.20;;;;;;;18.57;44.17;101118.94;4788610;29;20038;-94
2022/11/16 07:13:13;;;;;;;0.20;0.20;;;;;;;18.57;44.11;101123.50;4794869;29;20488;-94
2022/11/16 07:15:38;;;;;;;0.10;0.10;;;;;;;18.58;43.97;101117.88;4787278;29;20461;-93
2022/11/16 07:18:06;;;;;;;0.15;0.15;;;;;;;18.58;44.12;101117.06;4808417;29;20026;-94
2022/11/16 07:20:33;;;;;;;0.17;0.17;;;;;;;18.57;44.11;101124.34;4789080;29;20043;-95
2022/11/16 07:22:59;;;;;;;0.20;0.20;;;;;;;18.58;44.12;101126.00;4812593;29;20072;-94
2022/11/16 07:25:25;;;;;;;0.15;0.15;;;;;;;18.58;44.17;101126.00;4809082;29;20088;-94
2022/11/16 07:27:54;;;;;;;0.20;0.20;;;;;;;18.56;44.00;101124.56;4815366;29;20030;-94
2022/11/16 07:30:19;;;;;;;0.10;0.10;;;;;;;18.55;43.89;101120.19;4808280;29;20109;-94
2022/11/16 07:32:45;;;;;;;0.20;0.20;;;;;;;18.55;44.22;101115.59;4810136;29;20105;-95
2022/11/16 07:35:10;;;;;;;0.10;0.10;;;;;;;18.57;44.00;101121.66;4807288;29;20507;-93
2022/11/16 07:37:36;;;;;;;0.20;0.20;;;;;;;18.57;43.88;101120.78;4811861;29;20061;-94
2022/11/16 07:40:02;;;;;;;0.20;0.20;;;;;;;18.57;44.05;101129.75;4808929;29;20650;-94
2022/11/16 07:42:28;;;;;;;0.20;0.20;;;;;;;18.56;44.13;101124.56;4807562;29;20070;-94
2022/11/16 07:44:53;;;;;;;0.20;0.20;;;;;;;18.57;44.09;101127.06;4792629;29;20173;-95
2022/11/16 07:47:19;;;;;;;0.20;0.20;;;;;;;18.57;44.15;101108.09;4810607;29;20144;-94
2022/11/16 07:49:47;;;;;;;0.10;0.10;;;;;;;18.53;44.13;101106.88;4811866;29;20090;-94
2022/11/16 07:52:12;;;;;;;0.20;0.20;;;;;;;18.58;44.05;101109.75;4814459;29;20577;-94
2022/11/16 07:54:38;;;;;;;0.20;0.20;;;;;;;18.57;44.18;101108.09;4814142;29;20067;-95
2022/11/16 07:57:04;;;;;;;0.10;0.10;;;;;;;18.53;44.05;101101.47;4807710;29;20040;-95
2022/11/16 07:59:30;;;;;;;0.20;0.20;;;;;;;18.57;44.09;101105.41;4796516;29;20181;-94
2022/11/16 08:01:55;;;;;;;0.15;0.15;;;;;;;18.58;44.11;101100.81;4811529;29;20043;-94
2022/11/16 08:04:21;;;;;;;0.32;0.20;;;;;;;18.56;44.17;101106.44;4808631;29;20122;-94
2022/11/16 08:06:49;;;;;;;0.20;0.20;;;;;;;18.57;44.14;101115.38;4811783;29;20031;-94
2022/11/16 08:09:15;;;;;;;0.20;0.20;;;;;;;18.56;43.89;101114.56;4810894;29;20034;-93
2022/11/16 08:11:40;;;;;;;0.20;0.20;;;;;;;18.57;44.00;101110.81;4811399;29;21398;-94
2022/11/16 08:14:10;;;;;;;1.20;0.20;;;;;;;18.56;44.07;101111.84;4792593;29;20117;-93
2022/11/16 08:16:35;;;;;;;0.17;0.17;;;;;;;18.56;43.98;101111.03;4792912;29;20091;-94
2022/11/16 08:19:01;;;;;;;0.28;0.20;;;;;;;18.58;43.79;101109.75;4811489;29;20054;-95
2022/11/16 08:21:27;;;;;;;0.20;0.20;;;;;;;18.60;43.89;101106.81;4780575;29;20069;-93
2022/11/16 08:23:52;;;;;;;0.30;0.20;;;;;;;18.59;43.75;101105.16;4798726;29;20249;-93
2022/11/16 08:26:19;;;;;;;0.20;0.20;;;;;;;18.60;43.94;101111.41;4810328;29;20066;-94
2022/11/16 08:28:45;;;;;;;0.10;0.10;;;;;;;18.56;43.96;101109.16;4789616;29;20026;-94
2022/11/16 08:31:16;;;;;;;0.30;0.20;;;;;;;18.58;44.00;101112.44;4811598;29;20409;-95
2022/11/16 08:33:41;;;;;;;0.20;0.20;;;;;;;18.58;44.06;101111.63;4809298;29;20031;-94
2022/11/16 08:36:09;;;;;;;0.15;0.15;;;;;;;18.53;44.13;101109.59;4809236;29;20031;-94
2022/11/16 08:38:39;;;;;;;0.20;0.20;;;;;;;18.57;43.86;101113.53;4791265;29;20121;-94
2022/11/16 08:41:05;;;;;;;0.10;0.10;;;;;;;18.56;43.76;101114.56;4814090;29;20034;-95
2022/11/16 08:43:32;;;;;;;0.20;0.20;;;;;;;18.57;43.89;101118.94;4782723;29;20492;-95
2022/11/16 08:45:59;;;;;;;0.17;0.17;;;;;;;18.57;43.89;101113.53;4795528;29;20476;-94
2022/11/16 08:48:24;;;;;;;0.20;0.20;;;;;;;18.60;43.81;101116.81;4811308;29;20072;-94
2022/11/16 08:50:50;;;;;;;0.80;0.20;;;;;;;18.59;43.92;101124.09;4810948;29;20034;-94
2022/11/16 08:53:16;;;;;;;0.20;0.20;;;;;;;18.55;43.89;101115.59;4813008;29;20026;-94
2022/11/16 08:55:42;;;;;;;0.17;0.17;;;;;;;18.56;43.89;101116.44;4815622;29;20385;-94
2022/11/16 08:58:11;;;;;;;0.20;0.20;;;;;;;18.56;43.90;101122.69;4785445;29;20026;-95
2022/11/16 09:00:37;;;;;;;0.30;0.30;;;;;;;18.60;43.92;101116.81;4815972;29;20079;-94
2022/11/16 09:03:02;;;;;;;0.20;0.20;;;;;;;18.58;43.86;101114.34;4813861;29;20133;-95
2022/11/16 09:05:28;;;;;;;0.10;0.10;;;;;;;18.58;43.83;101112.44;4784485;29;20035;-95
2022/11/16 09:07:53;;;;;;;0.20;0.20;;;;;;;18.61;43.66;101115.75;4812438;29;20095;-95
2022/11/16 09:10:21;;;;;;;0.20;0.20;;;;;;;18.60;43.95;101120.34;4809177;29;20438;-94
2022/11/16 09:12:51;;;;;;;0.30;0.30;;;;;;;18.58;43.89;101115.16;4810874;29;20472;-94
2022/11/16 09:15:18;;;;;;;0.30;0.30;;;;;;;18.58;43.98;101115.16;4813839;29;20030;-94
2022/11/16 09:17:44;;;;;;;1.48;1.00;;;;;;;18.58;43.90;101117.88;4813211;29;20046;-94
2022/11/16 09:20:13;;;;;;;1.45;0.70;;;;;;;18.61;43.78;101107.63;4810480;29;20033;-93
2022/11/16 09:22:38;;;;;;;3.28;1.90;;;;;;;18.57;43.97;101099.13;4815067;29;20123;-94
2022/11/16 09:25:04;;;;;;;3.47;2.00;;;;;;;18.57;43.84;101108.09;4816196;29;20623;-94
2022/11/16 09:27:30;;;;;;;4.60;2.33;;;;;;;18.60;43.67;101103.28;4800444;29;20049;-95
2022/11/16 09:29:56;;;;;;;5.80;2.90;;;;;;;18.60;43.70;101100.59;4808847;29;20434;-94
2022/11/16 09:32:21;;;;;;;4.47;2.50;;;;;;;18.60;44.09;101101.41;4797112;29;20026;-93
2022/11/16 09:34:47;;;;;;;4.15;2.40;;;;;;;18.60;43.70;101104.13;4815978;29;20033;-94
2022/11/16 09:37:14;;;;;;;4.88;2.65;;;;;;;18.60;43.66;101106.00;4811180;29;20128;-94
2022/11/16 09:39:39;;;;;;;5.60;2.53;;;;;;;18.56;43.73;101098.31;4783754;29;20061;-94
2022/11/16 09:42:29;;;;;;;4.85;2.25;;;;;;;18.61;43.85;101107.63;4815063;29;20069;-94
2022/11/16 09:45:23;;;;;;;4.60;2.63;;;;;;;18.60;43.65;101100.59;4808919;29;20034;-95
2022/11/16 09:47:58;;;;;;;3.78;2.05;;;;;;;18.60;43.85;101096.00;4781906;29;20026;-94
2022/11/16 09:50:23;;;;;;;4.00;2.30;;;;;;;18.61;43.72;101103.06;4796782;29;20481;-94
2022/11/16 09:52:49;;;;;;;2.80;1.70;;;;;;;18.62;43.80;101103.91;4811523;29;20065;-94
2022/11/16 09:55:44;;;;;;;4.22;2.10;;;;;;;18.58;43.81;101103.50;4797587;29;20091;-94
2022/11/16 09:58:33;;;;;;;;;;;;;;;18.63;43.71;101100.16;4785388;29;20045;-95
2022/11/16 10:01:11;;;;;;;3.83;2.05;;;;;;;18.62;43.85;101101.19;4801476;29;19928;-94
2022/11/16 10:03:39;;;;;;;3.80;1.80;;;;;;;18.61;43.85;101107.63;4811673;29;20042;-93
2022/11/16 10:06:14;;;;;;;3.25;1.85;;;;;;;18.63;43.79;101110.97;4779747;29;20129;-93
2022/11/16 10:08:47;;;;;;;2.50;1.65;;;;;;;18.62;43.71;101103.91;4794603;29;20422;-94
2022/11/16 10:11:51;;;;;;;3.75;2.25;;;;;;;18.62;43.72;101098.47;4822531;29;20041;-94
2022/11/16 10:14:56;;;;;;;3.13;1.63;;;;;;;18.62;43.77;101101.19;4777803;29;20087;-93
2022/11/16 10:17:52;;;;;;;2.88;1.73;;;;;;;18.62;43.73;101103.91;4801970;29;20386;-95
2022/11/16 10:20:37;;;;;;;3.08;1.52;;;;;;;18.62;43.61;101103.91;4809636;29;20050;-95
2022/11/16 10:23:11;;;;;;;3.08;1.75;;;;;;;18.62;43.87;101101.19;4795544;29;20038;-95
2022/11/16 10:25:49;;;;;;;1.70;1.25;;;;;;;18.62;43.81;101103.91;4792869;29;20042;-94
2022/11/16 10:28:49;;;;;;;3.00;1.63;;;;;;;18.62;43.76;101101.19;4797572;29;20026;-95
2022/11/16 10:31:44;;;;;;;3.17;1.65;;;;;;;18.62;43.75;101104.72;4792954;29;20046;-95
2022/11/16 10:34:15;;;;;;;2.42;1.70;;;;;;;18.64;43.86;101107.19;4778832;29;20067;-95
2022/11/16 10:36:40;;;;;;;3.25;1.60;;;;;;;18.62;43.83;101114.72;4812547;29;20040;-94
2022/11/16 10:39:12;;;;;;;2.15;1.30;;;;;;;18.63;43.73;101108.28;4793711;29;20031;-94
2022/11/16 10:41:44;;;;;;;2.22;1.50;;;;;;;18.63;43.91;101108.28;4792754;29;20038;-94
2022/11/16 10:44:34;;;;;;;1.83;1.20;;;;;;;18.65;43.63;101103.44;4796156;29;20271;-93
2022/11/16 10:47:03;;;;;;;2.15;1.23;;;;;;;18.62;43.70;101099.28;4811893;29;20083;-95
2022/11/16 10:49:42;;;;;;;1.65;1.25;;;;;;;18.62;43.71;101098.47;4798915;29;20038;-94
2022/11/16 10:52:08;;;;;;;2.33;1.30;;;;;;;18.65;43.92;101092.63;4792253;29;20117;-94
2022/11/16 10:54:33;;;;;;;2.78;1.63;;;;;;;18.65;43.90;101100.75;4810664;29;20126;-95
2022/11/16 10:57:16;;;;;;;2.28;1.27;;;;;;;18.65;43.77;101103.44;4809213;29;20309;-93
2022/11/16 10:59:44;;;;;;;1.90;1.27;;;;;;;18.63;43.85;101105.56;4811548;29;20041;-94
2022/11/16 11:02:26;;;;;;;2.03;1.13;;;;;;;18.65;43.93;101111.56;4790359;29;20051;-94
2022/11/16 11:05:21;;;;;;;1.95;1.48;;;;;;;18.64;43.87;101108.00;4791389;29;20054;-93
2022/11/16 11:07:58;;;;;;;1.88;1.10;;;;;;;18.65;43.99;101117.00;4793003;29;20039;-94
2022/11/16 11:10:31;;;;;;;1.67;1.20;;;;;;;18.64;43.76;101109.91;4794474;29;20041;-94
2022/11/16 11:13:11;;;;;;;1.50;1.10;;;;;;;18.65;43.69;101114.28;4793001;29;20117;-94
2022/11/16 11:15:41;;;;;;;1.67;1.00;;;;;;;18.64;43.79;101109.91;4790573;29;20114;-94
2022/11/16 11:18:25;;;;;;;1.63;0.98;;;;;;;18.65;43.78;101111.56;4795950;29;20122;-93
2022/11/16 11:20:57;;;;;;;1.85;1.10;;;;;;;18.63;43.69;101111.78;4780361;29;20829;-94
2022/11/16 11:23:25;;;;;;;1.63;1.08;;;;;;;18.65;43.66;101117.00;4794086;29;20933;-94
2022/11/16 11:26:00;;;;;;;1.40;1.00;;;;;;;18.61;43.81;101111.19;4790868;29;20054;-95
2022/11/16 11:28:30;;;;;;;1.85;1.10;;;;;;;18.62;43.79;101115.53;4791867;29;20038;-93
2022/11/16 11:31:10;;;;;;;1.65;1.10;;;;;;;18.64;43.65;101112.63;4780967;29;20117;-94
2022/11/16 11:33:51;;;;;;;1.67;0.85;;;;;;;18.52;43.56;101091.72;4793433;29;20123;-93
2022/11/16 11:36:31;;;;;;;1.70;1.20;;;;;;;18.62;43.54;101110.13;4793671;29;20083;-95
2022/11/16 11:39:03;;;;;;;1.45;0.95;;;;;;;18.55;43.68;101087.72;4792349;29;20054;-94
2022/11/16 11:41:34;;;;;;;1.40;0.90;;;;;;;18.65;43.57;101095.34;4791159;29;20113;-94
2022/11/16 11:44:20;;;;;;;1.02;0.80;;;;;;;18.55;43.75;101088.53;4792811;29;20366;-93
2022/11/16 11:46:50;;;;;;;1.48;0.80;;;;;;;18.53;43.79;101071.69;4788073;29;20043;-94
2022/11/16 11:49:28;;;;;;;1.70;1.10;;;;;;;18.65;43.92;101104.28;4789544;29;20035;-93
2022/11/16 11:51:55;;;;;;;1.25;0.90;;;;;;;18.61;43.64;101083.28;4777518;29;20035;-93
2022/11/16 11:54:23;;;;;;;1.13;1.00;;;;;;;18.64;43.80;101094.47;4789839;29;20031;-94
2022/11/16 11:56:48;;;;;;;1.50;1.00;;;;;;;18.57;43.83;101082.91;4776001;29;20043;-94
2022/11/16 11:59:19;;;;;;;1.30;0.80;;;;;;;18.65;43.79;101093.44;4791852;29;20463;-94
2022/11/16 12:02:06;;;;;;;1.80;0.90;;;;;;;18.66;44.01;101096.97;4780918;29;20035;-94
2022/11/16 12:04:55;;;;;;;1.20;0.70;;;;;;;18.65;43.69;101092.63;4791635;29;20042;-94
2022/11/16 12:07:39;;;;;;;1.50;0.60;;;;;;;18.66;43.91;101094.25;4782607;29;20052;-94
2022/11/16 12:10:22;;;;;;;1.35;0.90;;;;;;;18.63;43.68;101094.72;4813641;29;20315;-93
2022/11/16 12:12:59;;;;;;;0.82;0.70;;;;;;;18.66;43.75;101105.09;4797587;29;20053;-93
2022/11/16 12:15:40;;;;;;;1.17;0.80;;;;;;;18.65;43.83;101104.28;4821470;29;20122;-94
2022/11/16 12:18:15;;;;;;;0.85;0.73;;;;;;;18.65;43.67;101098.84;4795206;29;20031;-94